Check time and date!

--------------------------------------
--------------------------------------
--------------------------------------
--------------------------------------
--------------------------------------
LGAT 080000Z AUTO VRB02KT //// // ////// 12/10 Q1017 RE//
--------------------------------------
METAR LGAD 072350Z VRB03KT 9999 SCT018 14/11 Q1019
METAR LGAV 072350Z VRB02KT 9999 FEW025 09/08 Q1017 NOSIG
METAR LGBL 072350Z 30005KT 8000 FEW030 06/05 Q1018
METAR LGEL 072350Z 00000KT 9999 FEW025 13/10 Q1016
METAR LGIO 072350Z AUTO VRB01KT //// // ////// 06/06 Q1020 RE//
METAR LGIR 072350Z 23008KT 9999 FEW025 SCT080 16/10 Q1016 NOSIG
METAR LGKL 072350Z AUTO 31004KT //// // ////// 10/09 Q1019 RE//
METAR LGKO 072350Z 01004KT 9999 FEW018 SCT025 13/11 Q1016
METAR LGKR 072350Z 00000KT 9999 FEW030 12/11 Q1019 NOSIG
METAR LGKV 072350Z 00000KT 9999 FEW025 SCT080 05/03 Q1017
METAR LGKZ 072350Z AUTO 35005KT //// // ////// 06/04 Q1019 RE//
METAR LGLM 072350Z 00000KT 9999 FEW025 12/10 Q1016
METAR LGLR 072350Z 00000KT 8000 FEW010 SCT025 BKN080 09/08 Q1019 BLU
METAR LGPA 072350Z AUTO 01006KT //// // ////// 16/12 Q1016 RE//
METAR LGPZ 072350Z 00000KT 9999 FEW020 11/10 Q1020
METAR LGRP 072350Z 26006KT 9999 FEW018 SCT020 15/12 Q1015 NOSIG
METAR LGRX 072350Z 00000KT 9999 FEW020 10/10 Q1019
METAR LGSA 072350Z 26010KT 9999 FEW020 BKN025 16/13 Q1016
METAR LGSO 072350Z AUTO VRB03KT //// // ////// 16/12 Q1016 RE//
METAR LGSY 072350Z 30007KT 9999 FEW018 SCT025 14/11 Q1017 BLU
METAR LGTG 072350Z 30006KT 7000 FEW020 08/08 Q1018 WHT
METAR LGTS 072350Z VRB02KT 8000 FEW008 05/05 Q1020 NOSIG

--------------------------------------
TAF LGAD 072300Z 0800/0809 35008KT 9999 FEW025
TAF LGAL 072300Z 0800/0809 VRB05KT 9999 FEW020 BKN020 PROB40 TEMPO 0800/0806 5000 BR PROB30 TEMPO 0800/0802 5000 RA FEW018TCU BKN040 BECMG 0800/0802 05010KT
TAF LGAV 072300Z 0800/0824 VRB05KT 9999 FEW025 BKN070 BECMG 0808/0810 36012KT
TAF LGBL 072300Z 0800/0809 30008KT 7000 FEW010 SCT025 TEMPO 0800/0806 FEW010 BKN025
TAF LGEL 072300Z 0800/0824 35008KT 8000 SCT025 SCT070 BECMG 0810/0812 VRB05KT
TAF LGHI 072300Z 0800/0809 VRB05KT 9999 FEW020 PROB40 TEMPO 0800/0809 5000 RA FEW018TCU BKN040 PROB30 TEMPO 0800/0806 5000 BR BECMG 0807/0809 02010KT
TAF LGIO 072300Z 0800/0809 VRB03KT 3000 BR SCT008 BKN020 PROB40 0800/0809 0200 FG BKN002
TAF LGIR 072300Z 0800/0824 28013KT 9999 FEW020 SCT060 PROB30 TEMPO 0800/0818 5000 RA BECMG 0807/0809 34010KT
TAF LGKC 072300Z 0800/0809 30012G22KT 9999 SCT018 PROB30 TEMPO 0800/0802 5000 RA FEW018TCU BKN030 BECMG 0803/0805 32012KT
TAF LGKF 072300Z 0800/0809 32012KT 9999 FEW014 SCT018 BKN070 PROB30 TEMPO 0800/0802 5000 RA FEW018TCU
TAF LGKL 072300Z 0800/0809 33008KT 8000 FEW025
TAF LGKO 072300Z 0800/0824 27012KT 9999 FEW018 PROB40 TEMPO 0800/0810 5000 SHRA FEW018TCU BKN025 BECMG 0800/0802 35015KT
TAF LGKP 072300Z 0800/0809 35015KT 9999 FEW018 BKN025 BECMG 0807/0809 SCT020
TAF LGKR 072300Z 0800/0824 26006KT 9999 SCT020 BKN080 BECMG 0802/0804 VRB05KT PROB30 TEMPO 0800/0806 5000 RA FEW018TCU BKN020 BKN070 TEMPO 0812/0816 32012KT
TAF LGLM 072300Z 0800/0809 02010KT 9999 SCT025
TAF LGLR 072300Z 0800/0809 VRB03KT 8000 FEW025 PROB40 TEMPO 0803/0808 3000 BR SCT008
TAF LGMK 072300Z 0800/0809 14012KT 9999 FEW010 BKN020 PROB30 TEMPO 0800/0803 5000 RA BECMG 0804/0806 35015G25KT
TAF LGMT 072300Z 0800/0809 VRB05KT 9999 BKN020 PROB40 TEMPO 0800/0806 5000 RA FEW018TCU BKN040 PROB30 TEMPO 0800/0806 5000 BR BECMG 0807/0809 02010KT
TAF LGPZ 072300Z 0800/0824 VRB05KT 9000 SCT025 BKN080 PROB30 TEMPO 0800/0806 5000 RA FEW018TCU BKN020 BKN070
TAF LGRP 072300Z 0800/0824 28012KT 9999 FEW018 PROB40 TEMPO 0800/0808 5000 SHRA FEW018TCU BKN025 TEMPO 0800/0804 VRB05KT BECMG 0810/0812 30013G23KT
TAF LGRX 072300Z 0800/0809 35008KT 9999 FEW025
TAF LGSA 072300Z 0800/0824 28015G25KT 9999 SCT020 SCT070 PROB30 TEMPO 0800/0818 5000 RA BECMG 0804/0806 33012KT
TAF LGSK 072300Z 0800/0809 34012KT 9999 SCT020 BKN030
TAF LGSM 072300Z 0800/0809 VRB05KT 9999 SCT020 PROB30 TEMPO 0800/0809 5000 RA FEW018TCU BKN040 BECMG 0807/0809 02010KT
TAF LGSR 072300Z 0800/0824 30012KT 9999 SCT020 PROB30 TEMPO 0800/0804 5000 RA SCT020 BKN030 BECMG 0812/0814 34013G23KT
TAF LGST 072300Z 0800/0809 30015KT 9999 FEW020 SCT025 PROB30 TEMPO 0800/0803 5000 RA
TAF LGSY 072300Z 0800/0809 35012KT 9999 SCT025
TAF LGTG 072300Z 0800/0809 30006KT 5000 BR SCT012 SCT020 PROB40 TEMPO 0803/0807 0800 FG BKN010 BECMG 0807/0809 9999 FEW025
TAF LGTL 072300Z 0800/0809 35008KT 9999 FEW016 BKN020 PROB30 TEMPO 0803/0809 8000 RA
TAF LGTS 072300Z 0800/0824 33010KT 9999 FEW025 PROB30 0803/0807 5000 BR SCT008 BECMG 0812/0814 VRB03KT
TAF LGZA 072300Z 0800/0809 31012KT 8000 SCT016 SCT070 PROB30 TEMPO 0800/0802 5000 RA FEW018TCU